sensor_id;sensor_type;location;lat;lon;timestamp;temperature;humidity
43673;DHT22;41723;49.326;8.430;2024-03-02T00:00:51;8.60;99.90
43673;DHT22;41723;49.326;8.430;2024-03-02T00:03:17;8.50;99.90
43673;DHT22;41723;49.326;8.430;2024-03-02T00:05:43;8.60;99.90
43673;DHT22;41723;49.326;8.430;2024-03-02T00:08:09;8.60;99.90
43673;DHT22;41723;49.326;8.430;2024-03-02T00:10:38;8.60;99.90
43673;DHT22;41723;49.326;8.430;2024-03-02T00:13:07;8.50;99.90
43673;DHT22;41723;49.326;8.430;2024-03-02T00:18:02;8.60;99.90
43673;DHT22;41723;49.326;8.430;2024-03-02T00:20:28;8.50;99.90
43673;DHT22;41723;49.326;8.430;2024-03-02T00:23:00;8.60;99.90
43673;DHT22;41723;49.326;8.430;2024-03-02T00:25:26;8.60;99.90
43673;DHT22;41723;49.326;8.430;2024-03-02T00:27:52;8.60;99.90
43673;DHT22;41723;49.326;8.430;2024-03-02T00:33:02;8.60;99.90
43673;DHT22;41723;49.326;8.430;2024-03-02T00:35:27;8.60;99.90
43673;DHT22;41723;49.326;8.430;2024-03-02T00:37:54;8.50;99.90
43673;DHT22;41723;49.326;8.430;2024-03-02T00:40:20;8.30;99.90
43673;DHT22;41723;49.326;8.430;2024-03-02T00:42:45;8.30;99.90
43673;DHT22;41723;49.326;8.430;2024-03-02T00:45:11;8.20;99.90
43673;DHT22;41723;49.326;8.430;2024-03-02T00:47:38;8.30;99.90
43673;DHT22;41723;49.326;8.430;2024-03-02T00:50:04;8.40;99.90
43673;DHT22;41723;49.326;8.430;2024-03-02T00:52:31;8.40;99.90
43673;DHT22;41723;49.326;8.430;2024-03-02T00:54:58;8.50;99.90
43673;DHT22;41723;49.326;8.430;2024-03-02T00:57:24;8.50;99.90
43673;DHT22;41723;49.326;8.430;2024-03-02T00:59:51;8.50;99.90
43673;DHT22;41723;49.326;8.430;2024-03-02T01:02:17;8.40;99.90
43673;DHT22;41723;49.326;8.430;2024-03-02T01:04:45;8.40;99.90
43673;DHT22;41723;49.326;8.430;2024-03-02T01:07:11;8.30;99.90
43673;DHT22;41723;49.326;8.430;2024-03-02T01:09:36;8.40;99.90
43673;DHT22;41723;49.326;8.430;2024-03-02T01:12:02;8.40;99.90
43673;DHT22;41723;49.326;8.430;2024-03-02T01:14:28;8.20;99.90
43673;DHT22;41723;49.326;8.430;2024-03-02T01:16:53;8.20;99.90
43673;DHT22;41723;49.326;8.430;2024-03-02T01:19:19;8.30;99.90
43673;DHT22;41723;49.326;8.430;2024-03-02T01:21:45;8.30;99.90
43673;DHT22;41723;49.326;8.430;2024-03-02T01:24:11;8.20;99.90
43673;DHT22;41723;49.326;8.430;2024-03-02T01:26:36;8.20;99.90
43673;DHT22;41723;49.326;8.430;2024-03-02T01:29:02;8.10;99.90
43673;DHT22;41723;49.326;8.430;2024-03-02T01:31:28;8.10;99.90
43673;DHT22;41723;49.326;8.430;2024-03-02T01:33:53;8.00;99.90
43673;DHT22;41723;49.326;8.430;2024-03-02T01:36:19;8.10;99.90
43673;DHT22;41723;49.326;8.430;2024-03-02T01:38:44;8.10;99.90
43673;DHT22;41723;49.326;8.430;2024-03-02T01:41:10;8.10;99.90
43673;DHT22;41723;49.326;8.430;2024-03-02T01:43:37;8.10;99.90
43673;DHT22;41723;49.326;8.430;2024-03-02T01:46:02;8.10;99.90
43673;DHT22;41723;49.326;8.430;2024-03-02T01:48:28;8.10;99.90
43673;DHT22;41723;49.326;8.430;2024-03-02T01:50:53;8.20;99.90
43673;DHT22;41723;49.326;8.430;2024-03-02T01:53:19;8.10;99.90
43673;DHT22;41723;49.326;8.430;2024-03-02T01:55:45;8.00;99.90
43673;DHT22;41723;49.326;8.430;2024-03-02T01:58:11;7.90;99.90
43673;DHT22;41723;49.326;8.430;2024-03-02T02:00:36;7.90;99.90
43673;DHT22;41723;49.326;8.430;2024-03-02T02:03:02;7.90;99.90
43673;DHT22;41723;49.326;8.430;2024-03-02T02:05:28;7.90;99.90
43673;DHT22;41723;49.326;8.430;2024-03-02T02:07:53;7.80;99.90
43673;DHT22;41723;49.326;8.430;2024-03-02T02:10:19;7.90;99.90
43673;DHT22;41723;49.326;8.430;2024-03-02T02:12:44;7.70;99.90
43673;DHT22;41723;49.326;8.430;2024-03-02T02:15:23;7.60;99.90
43673;DHT22;41723;49.326;8.430;2024-03-02T02:17:49;7.60;99.90
43673;DHT22;41723;49.326;8.430;2024-03-02T02:20:14;7.60;99.90
43673;DHT22;41723;49.326;8.430;2024-03-02T02:22:40;7.60;99.90
43673;DHT22;41723;49.326;8.430;2024-03-02T02:25:06;7.60;99.90
43673;DHT22;41723;49.326;8.430;2024-03-02T02:27:31;7.80;99.90
43673;DHT22;41723;49.326;8.430;2024-03-02T02:29:57;7.90;99.90
43673;DHT22;41723;49.326;8.430;2024-03-02T02:32:22;7.90;99.90
43673;DHT22;41723;49.326;8.430;2024-03-02T02:34:52;7.80;99.90
43673;DHT22;41723;49.326;8.430;2024-03-02T02:37:17;7.80;99.90
43673;DHT22;41723;49.326;8.430;2024-03-02T02:39:43;7.70;99.90
43673;DHT22;41723;49.326;8.430;2024-03-02T02:42:09;7.70;99.90
43673;DHT22;41723;49.326;8.430;2024-03-02T02:44:34;7.80;99.90
43673;DHT22;41723;49.326;8.430;2024-03-02T02:47:00;7.80;99.90
43673;DHT22;41723;49.326;8.430;2024-03-02T02:49:25;7.80;99.90
43673;DHT22;41723;49.326;8.430;2024-03-02T02:51:51;7.80;99.90
43673;DHT22;41723;49.326;8.430;2024-03-02T02:54:17;7.80;99.90
43673;DHT22;41723;49.326;8.430;2024-03-02T02:56:43;7.90;99.90
43673;DHT22;41723;49.326;8.430;2024-03-02T02:59:08;7.90;99.90
43673;DHT22;41723;49.326;8.430;2024-03-02T03:01:34;7.90;99.90
43673;DHT22;41723;49.326;8.430;2024-03-02T03:03:59;7.90;99.90
43673;DHT22;41723;49.326;8.430;2024-03-02T03:06:25;7.80;99.90
43673;DHT22;41723;49.326;8.430;2024-03-02T03:08:51;7.80;99.90
43673;DHT22;41723;49.326;8.430;2024-03-02T03:11:16;7.70;99.90
43673;DHT22;41723;49.326;8.430;2024-03-02T03:13:42;7.70;99.90
43673;DHT22;41723;49.326;8.430;2024-03-02T03:16:08;7.80;99.90
43673;DHT22;41723;49.326;8.430;2024-03-02T03:18:33;7.80;99.90
43673;DHT22;41723;49.326;8.430;2024-03-02T03:20:59;7.80;99.90
43673;DHT22;41723;49.326;8.430;2024-03-02T03:23:25;7.60;99.90
43673;DHT22;41723;49.326;8.430;2024-03-02T03:25:51;7.30;99.90
43673;DHT22;41723;49.326;8.430;2024-03-02T03:28:16;7.40;99.90
43673;DHT22;41723;49.326;8.430;2024-03-02T03:30:42;7.50;99.90
43673;DHT22;41723;49.326;8.430;2024-03-02T03:33:08;7.30;99.90
43673;DHT22;41723;49.326;8.430;2024-03-02T03:35:34;7.30;99.90
43673;DHT22;41723;49.326;8.430;2024-03-02T03:38:00;7.30;99.90
43673;DHT22;41723;49.326;8.430;2024-03-02T03:40:26;7.50;99.90
43673;DHT22;41723;49.326;8.430;2024-03-02T03:42:51;7.60;99.90
43673;DHT22;41723;49.326;8.430;2024-03-02T03:45:17;7.60;99.90
43673;DHT22;41723;49.326;8.430;2024-03-02T03:47:43;7.50;99.90
43673;DHT22;41723;49.326;8.430;2024-03-02T03:50:08;7.50;99.90
43673;DHT22;41723;49.326;8.430;2024-03-02T03:52:34;7.60;99.90
43673;DHT22;41723;49.326;8.430;2024-03-02T03:55:00;7.60;99.90
43673;DHT22;41723;49.326;8.430;2024-03-02T03:57:26;7.60;99.90
43673;DHT22;41723;49.326;8.430;2024-03-02T03:59:52;7.60;99.90
43673;DHT22;41723;49.326;8.430;2024-03-02T04:02:18;7.60;99.90
43673;DHT22;41723;49.326;8.430;2024-03-02T04:04:43;7.60;99.90
43673;DHT22;41723;49.326;8.430;2024-03-02T04:07:09;7.60;99.90
43673;DHT22;41723;49.326;8.430;2024-03-02T04:09:34;7.60;99.90
43673;DHT22;41723;49.326;8.430;2024-03-02T04:12:00;7.60;99.90
43673;DHT22;41723;49.326;8.430;2024-03-02T04:14:26;7.60;99.90
43673;DHT22;41723;49.326;8.430;2024-03-02T04:16:51;7.50;99.90
43673;DHT22;41723;49.326;8.430;2024-03-02T04:19:17;7.50;99.90
43673;DHT22;41723;49.326;8.430;2024-03-02T04:21:42;7.30;99.90
43673;DHT22;41723;49.326;8.430;2024-03-02T04:24:08;7.30;99.90
43673;DHT22;41723;49.326;8.430;2024-03-02T04:26:33;7.40;99.90
43673;DHT22;41723;49.326;8.430;2024-03-02T04:28:59;7.40;99.90
43673;DHT22;41723;49.326;8.430;2024-03-02T04:31:25;7.40;99.90
43673;DHT22;41723;49.326;8.430;2024-03-02T04:33:50;7.40;99.90
43673;DHT22;41723;49.326;8.430;2024-03-02T04:36:16;7.30;99.90
43673;DHT22;41723;49.326;8.430;2024-03-02T04:38:41;7.20;99.90
43673;DHT22;41723;49.326;8.430;2024-03-02T04:41:07;7.30;99.90
43673;DHT22;41723;49.326;8.430;2024-03-02T04:43:33;7.30;99.90
43673;DHT22;41723;49.326;8.430;2024-03-02T04:45:59;7.20;99.90
43673;DHT22;41723;49.326;8.430;2024-03-02T04:48:25;7.10;99.90
43673;DHT22;41723;49.326;8.430;2024-03-02T04:50:51;7.00;99.90
43673;DHT22;41723;49.326;8.430;2024-03-02T04:53:16;7.00;99.90
43673;DHT22;41723;49.326;8.430;2024-03-02T04:55:42;7.10;99.90
43673;DHT22;41723;49.326;8.430;2024-03-02T04:58:08;7.10;99.90
43673;DHT22;41723;49.326;8.430;2024-03-02T05:00:33;7.00;99.90
43673;DHT22;41723;49.326;8.430;2024-03-02T05:02:59;7.00;99.90
43673;DHT22;41723;49.326;8.430;2024-03-02T05:05:25;7.10;99.90
43673;DHT22;41723;49.326;8.430;2024-03-02T05:07:51;7.10;99.90
43673;DHT22;41723;49.326;8.430;2024-03-02T05:10:17;7.20;99.90
43673;DHT22;41723;49.326;8.430;2024-03-02T05:12:43;7.20;99.90
43673;DHT22;41723;49.326;8.430;2024-03-02T05:15:12;7.30;99.90
43673;DHT22;41723;49.326;8.430;2024-03-02T05:17:38;7.20;99.90
43673;DHT22;41723;49.326;8.430;2024-03-02T05:20:07;7.30;99.90
43673;DHT22;41723;49.326;8.430;2024-03-02T05:22:35;7.30;99.90
43673;DHT22;41723;49.326;8.430;2024-03-02T05:25:02;7.40;99.90
43673;DHT22;41723;49.326;8.430;2024-03-02T05:27:27;7.40;99.90
43673;DHT22;41723;49.326;8.430;2024-03-02T05:29:53;7.30;99.90
43673;DHT22;41723;49.326;8.430;2024-03-02T05:32:19;7.30;99.90
43673;DHT22;41723;49.326;8.430;2024-03-02T05:34:44;7.30;99.90
43673;DHT22;41723;49.326;8.430;2024-03-02T05:37:10;7.10;99.90
43673;DHT22;41723;49.326;8.430;2024-03-02T05:39:36;7.00;99.90
43673;DHT22;41723;49.326;8.430;2024-03-02T05:42:01;7.00;99.90
43673;DHT22;41723;49.326;8.430;2024-03-02T05:44:27;7.00;99.90
43673;DHT22;41723;49.326;8.430;2024-03-02T05:46:52;7.10;99.90
43673;DHT22;41723;49.326;8.430;2024-03-02T05:49:18;7.20;99.90
43673;DHT22;41723;49.326;8.430;2024-03-02T05:51:43;7.10;99.90
43673;DHT22;41723;49.326;8.430;2024-03-02T05:54:09;7.10;99.90
43673;DHT22;41723;49.326;8.430;2024-03-02T05:56:35;7.10;99.90
43673;DHT22;41723;49.326;8.430;2024-03-02T05:59:00;7.10;99.90
43673;DHT22;41723;49.326;8.430;2024-03-02T06:01:44;7.10;99.90
43673;DHT22;41723;49.326;8.430;2024-03-02T06:04:10;6.90;99.90
43673;DHT22;41723;49.326;8.430;2024-03-02T06:06:39;7.00;99.90
43673;DHT22;41723;49.326;8.430;2024-03-02T06:09:05;7.10;99.90
43673;DHT22;41723;49.326;8.430;2024-03-02T06:11:40;7.20;99.90
43673;DHT22;41723;49.326;8.430;2024-03-02T06:14:06;7.10;99.90
43673;DHT22;41723;49.326;8.430;2024-03-02T06:16:32;7.20;99.90
43673;DHT22;41723;49.326;8.430;2024-03-02T06:18:58;7.20;99.90
43673;DHT22;41723;49.326;8.430;2024-03-02T06:21:24;7.10;99.90
43673;DHT22;41723;49.326;8.430;2024-03-02T06:23:49;7.10;99.90
43673;DHT22;41723;49.326;8.430;2024-03-02T06:26:15;7.00;99.90
43673;DHT22;41723;49.326;8.430;2024-03-02T06:28:40;7.00;99.90
43673;DHT22;41723;49.326;8.430;2024-03-02T06:31:06;7.00;99.90
43673;DHT22;41723;49.326;8.430;2024-03-02T06:33:32;7.00;99.90
43673;DHT22;41723;49.326;8.430;2024-03-02T06:35:57;7.00;99.90
43673;DHT22;41723;49.326;8.430;2024-03-02T06:38:23;7.10;99.90
43673;DHT22;41723;49.326;8.430;2024-03-02T06:40:49;7.10;99.90
43673;DHT22;41723;49.326;8.430;2024-03-02T06:43:15;7.20;99.90
43673;DHT22;41723;49.326;8.430;2024-03-02T06:45:40;7.30;99.90
43673;DHT22;41723;49.326;8.430;2024-03-02T06:48:06;7.30;99.90
43673;DHT22;41723;49.326;8.430;2024-03-02T06:50:32;7.40;99.90
43673;DHT22;41723;49.326;8.430;2024-03-02T06:52:57;7.30;99.90
43673;DHT22;41723;49.326;8.430;2024-03-02T06:55:23;7.30;99.90
43673;DHT22;41723;49.326;8.430;2024-03-02T06:57:50;7.30;99.90
43673;DHT22;41723;49.326;8.430;2024-03-02T07:00:16;7.20;99.90
43673;DHT22;41723;49.326;8.430;2024-03-02T07:02:43;7.30;99.90
43673;DHT22;41723;49.326;8.430;2024-03-02T07:05:10;7.30;99.90
43673;DHT22;41723;49.326;8.430;2024-03-02T07:07:35;7.20;99.90
43673;DHT22;41723;49.326;8.430;2024-03-02T07:10:02;7.20;99.90
43673;DHT22;41723;49.326;8.430;2024-03-02T07:12:28;7.30;99.90
43673;DHT22;41723;49.326;8.430;2024-03-02T07:14:54;7.20;99.90
43673;DHT22;41723;49.326;8.430;2024-03-02T07:17:42;7.10;99.90
43673;DHT22;41723;49.326;8.430;2024-03-02T07:20:08;7.20;99.90
43673;DHT22;41723;49.326;8.430;2024-03-02T07:22:33;7.10;99.90
43673;DHT22;41723;49.326;8.430;2024-03-02T07:24:59;7.00;99.90
43673;DHT22;41723;49.326;8.430;2024-03-02T07:27:24;7.10;99.90
43673;DHT22;41723;49.326;8.430;2024-03-02T07:29:50;7.10;99.90
43673;DHT22;41723;49.326;8.430;2024-03-02T07:32:16;7.20;99.90
43673;DHT22;41723;49.326;8.430;2024-03-02T07:34:41;7.40;99.90
43673;DHT22;41723;49.326;8.430;2024-03-02T07:37:07;7.40;99.90
43673;DHT22;41723;49.326;8.430;2024-03-02T07:39:33;7.40;99.90
43673;DHT22;41723;49.326;8.430;2024-03-02T07:41:59;7.40;99.90
43673;DHT22;41723;49.326;8.430;2024-03-02T07:44:25;7.50;99.90
43673;DHT22;41723;49.326;8.430;2024-03-02T07:46:50;7.50;99.90
43673;DHT22;41723;49.326;8.430;2024-03-02T07:49:16;7.60;99.90
43673;DHT22;41723;49.326;8.430;2024-03-02T07:51:42;7.80;99.90
43673;DHT22;41723;49.326;8.430;2024-03-02T07:54:08;7.80;99.90
43673;DHT22;41723;49.326;8.430;2024-03-02T07:56:33;7.90;99.90
43673;DHT22;41723;49.326;8.430;2024-03-02T07:58:59;7.90;99.90
43673;DHT22;41723;49.326;8.430;2024-03-02T08:01:29;8.10;99.90
43673;DHT22;41723;49.326;8.430;2024-03-02T08:03:59;8.00;99.90
43673;DHT22;41723;49.326;8.430;2024-03-02T08:06:25;8.00;99.90
43673;DHT22;41723;49.326;8.430;2024-03-02T08:08:56;8.10;99.90
43673;DHT22;41723;49.326;8.430;2024-03-02T08:11:22;8.20;99.90
43673;DHT22;41723;49.326;8.430;2024-03-02T08:13:48;8.30;99.90
43673;DHT22;41723;49.326;8.430;2024-03-02T08:16:17;8.30;99.90
43673;DHT22;41723;49.326;8.430;2024-03-02T08:18:47;8.40;99.90
43673;DHT22;41723;49.326;8.430;2024-03-02T08:21:12;8.40;99.90
43673;DHT22;41723;49.326;8.430;2024-03-02T08:23:38;8.40;99.90
43673;DHT22;41723;49.326;8.430;2024-03-02T08:26:06;8.50;99.90
43673;DHT22;41723;49.326;8.430;2024-03-02T08:28:33;8.70;99.90
43673;DHT22;41723;49.326;8.430;2024-03-02T08:30:59;8.80;99.90
43673;DHT22;41723;49.326;8.430;2024-03-02T08:33:24;8.80;99.90
43673;DHT22;41723;49.326;8.430;2024-03-02T08:35:50;9.00;99.90
43673;DHT22;41723;49.326;8.430;2024-03-02T08:38:16;9.00;99.90
43673;DHT22;41723;49.326;8.430;2024-03-02T08:40:41;9.00;99.90
43673;DHT22;41723;49.326;8.430;2024-03-02T08:43:07;9.20;99.90
43673;DHT22;41723;49.326;8.430;2024-03-02T08:45:33;9.20;99.90
43673;DHT22;41723;49.326;8.430;2024-03-02T08:47:59;9.40;99.90
43673;DHT22;41723;49.326;8.430;2024-03-02T08:50:25;9.40;99.90
43673;DHT22;41723;49.326;8.430;2024-03-02T08:52:51;9.40;99.90
43673;DHT22;41723;49.326;8.430;2024-03-02T08:55:17;9.50;99.90
43673;DHT22;41723;49.326;8.430;2024-03-02T08:57:42;9.60;99.90
43673;DHT22;41723;49.326;8.430;2024-03-02T09:00:08;9.50;99.90
43673;DHT22;41723;49.326;8.430;2024-03-02T09:02:34;9.60;99.90
43673;DHT22;41723;49.326;8.430;2024-03-02T09:04:59;9.70;99.90
43673;DHT22;41723;49.326;8.430;2024-03-02T09:07:25;9.70;99.90
43673;DHT22;41723;49.326;8.430;2024-03-02T09:09:51;9.80;99.90
43673;DHT22;41723;49.326;8.430;2024-03-02T09:12:17;9.90;99.90
43673;DHT22;41723;49.326;8.430;2024-03-02T09:14:43;10.00;99.90
43673;DHT22;41723;49.326;8.430;2024-03-02T09:17:09;10.10;99.90
43673;DHT22;41723;49.326;8.430;2024-03-02T09:19:36;10.30;99.90
43673;DHT22;41723;49.326;8.430;2024-03-02T09:22:02;10.30;99.90
43673;DHT22;41723;49.326;8.430;2024-03-02T09:24:28;10.40;99.90
43673;DHT22;41723;49.326;8.430;2024-03-02T09:26:54;10.60;99.90
43673;DHT22;41723;49.326;8.430;2024-03-02T09:29:19;10.70;99.90
43673;DHT22;41723;49.326;8.430;2024-03-02T09:31:46;10.70;99.90
43673;DHT22;41723;49.326;8.430;2024-03-02T09:34:12;10.70;99.90
43673;DHT22;41723;49.326;8.430;2024-03-02T09:36:37;10.80;99.90
43673;DHT22;41723;49.326;8.430;2024-03-02T09:39:03;10.80;99.90
43673;DHT22;41723;49.326;8.430;2024-03-02T09:41:29;10.80;99.90
43673;DHT22;41723;49.326;8.430;2024-03-02T09:43:55;10.90;99.90
43673;DHT22;41723;49.326;8.430;2024-03-02T09:46:20;10.90;99.90
43673;DHT22;41723;49.326;8.430;2024-03-02T09:48:46;11.00;99.90
43673;DHT22;41723;49.326;8.430;2024-03-02T09:51:11;11.40;99.90
43673;DHT22;41723;49.326;8.430;2024-03-02T09:53:38;11.10;99.90
43673;DHT22;41723;49.326;8.430;2024-03-02T09:56:03;10.80;99.90
43673;DHT22;41723;49.326;8.430;2024-03-02T09:58:30;10.90;99.90
43673;DHT22;41723;49.326;8.430;2024-03-02T10:00:56;10.90;99.90
43673;DHT22;41723;49.326;8.430;2024-03-02T10:03:22;10.70;99.90
43673;DHT22;41723;49.326;8.430;2024-03-02T10:05:48;11.00;99.90
43673;DHT22;41723;49.326;8.430;2024-03-02T10:08:14;11.20;99.90
43673;DHT22;41723;49.326;8.430;2024-03-02T10:10:40;11.30;99.90
43673;DHT22;41723;49.326;8.430;2024-03-02T10:13:07;11.30;99.90
43673;DHT22;41723;49.326;8.430;2024-03-02T10:15:33;11.40;99.90
43673;DHT22;41723;49.326;8.430;2024-03-02T10:17:59;11.50;99.90
43673;DHT22;41723;49.326;8.430;2024-03-02T10:20:25;11.80;99.90
43673;DHT22;41723;49.326;8.430;2024-03-02T10:22:51;11.90;99.90
43673;DHT22;41723;49.326;8.430;2024-03-02T10:25:32;11.90;99.90
43673;DHT22;41723;49.326;8.430;2024-03-02T10:27:58;12.20;99.90
43673;DHT22;41723;49.326;8.430;2024-03-02T10:30:25;12.40;99.90
43673;DHT22;41723;49.326;8.430;2024-03-02T10:32:52;12.70;99.90
43673;DHT22;41723;49.326;8.430;2024-03-02T10:35:18;12.70;99.90
43673;DHT22;41723;49.326;8.430;2024-03-02T10:37:44;12.70;99.90
43673;DHT22;41723;49.326;8.430;2024-03-02T10:40:10;12.90;99.90
43673;DHT22;41723;49.326;8.430;2024-03-02T10:42:37;13.00;99.90
43673;DHT22;41723;49.326;8.430;2024-03-02T10:45:03;13.10;99.90
43673;DHT22;41723;49.326;8.430;2024-03-02T10:47:29;13.40;99.90
43673;DHT22;41723;49.326;8.430;2024-03-02T10:49:55;13.50;99.60
43673;DHT22;41723;49.326;8.430;2024-03-02T10:52:24;13.60;99.90
43673;DHT22;41723;49.326;8.430;2024-03-02T10:54:50;13.60;99.90
43673;DHT22;41723;49.326;8.430;2024-03-02T10:57:16;13.80;99.10
43673;DHT22;41723;49.326;8.430;2024-03-02T10:59:46;13.60;99.90
43673;DHT22;41723;49.326;8.430;2024-03-02T11:02:18;13.40;99.90
43673;DHT22;41723;49.326;8.430;2024-03-02T11:04:47;13.40;99.90
43673;DHT22;41723;49.326;8.430;2024-03-02T11:07:14;13.40;99.90
43673;DHT22;41723;49.326;8.430;2024-03-02T11:09:48;13.50;99.90
43673;DHT22;41723;49.326;8.430;2024-03-02T11:12:23;13.60;99.90
43673;DHT22;41723;49.326;8.430;2024-03-02T11:14:53;13.70;99.90
43673;DHT22;41723;49.326;8.430;2024-03-02T11:17:21;13.70;99.90
43673;DHT22;41723;49.326;8.430;2024-03-02T11:19:47;13.60;99.90
43673;DHT22;41723;49.326;8.430;2024-03-02T11:22:13;13.80;99.90
43673;DHT22;41723;49.326;8.430;2024-03-02T11:24:47;14.00;99.30
43673;DHT22;41723;49.326;8.430;2024-03-02T11:27:13;14.30;99.20
43673;DHT22;41723;49.326;8.430;2024-03-02T11:32:17;14.40;98.40
43673;DHT22;41723;49.326;8.430;2024-03-02T11:34:46;14.50;98.20
43673;DHT22;41723;49.326;8.430;2024-03-02T11:37:12;14.40;98.20
43673;DHT22;41723;49.326;8.430;2024-03-02T11:39:38;14.40;98.10
43673;DHT22;41723;49.326;8.430;2024-03-02T11:42:07;14.40;97.90
43673;DHT22;41723;49.326;8.430;2024-03-02T11:44:36;14.50;98.30
43673;DHT22;41723;49.326;8.430;2024-03-02T11:47:06;14.60;98.00
43673;DHT22;41723;49.326;8.430;2024-03-02T11:49:42;14.80;98.00
43673;DHT22;41723;49.326;8.430;2024-03-02T11:52:09;15.10;97.20
43673;DHT22;41723;49.326;8.430;2024-03-02T11:54:38;15.40;97.00
43673;DHT22;41723;49.326;8.430;2024-03-02T11:57:16;15.40;96.00
43673;DHT22;41723;49.326;8.430;2024-03-02T11:59:42;15.50;95.90
43673;DHT22;41723;49.326;8.430;2024-03-02T12:02:14;15.50;95.90
43673;DHT22;41723;49.326;8.430;2024-03-02T12:04:40;15.70;95.80
43673;DHT22;41723;49.326;8.430;2024-03-02T12:07:06;15.80;95.40
43673;DHT22;41723;49.326;8.430;2024-03-02T12:09:31;16.10;94.70
43673;DHT22;41723;49.326;8.430;2024-03-02T12:12:04;16.10;94.70
43673;DHT22;41723;49.326;8.430;2024-03-02T12:14:30;16.40;96.30
43673;DHT22;41723;49.326;8.430;2024-03-02T12:16:56;16.30;96.70
43673;DHT22;41723;49.326;8.430;2024-03-02T12:19:24;16.60;95.20
43673;DHT22;41723;49.326;8.430;2024-03-02T12:21:50;16.20;96.10
43673;DHT22;41723;49.326;8.430;2024-03-02T12:24:15;16.40;95.10
43673;DHT22;41723;49.326;8.430;2024-03-02T12:26:42;16.40;94.00
43673;DHT22;41723;49.326;8.430;2024-03-02T12:29:07;16.70;93.50
43673;DHT22;41723;49.326;8.430;2024-03-02T12:31:33;16.70;93.30
43673;DHT22;41723;49.326;8.430;2024-03-02T12:33:59;16.90;93.10
43673;DHT22;41723;49.326;8.430;2024-03-02T12:36:25;16.70;92.70
43673;DHT22;41723;49.326;8.430;2024-03-02T12:38:53;16.70;93.30
43673;DHT22;41723;49.326;8.430;2024-03-02T12:41:20;17.00;92.70
43673;DHT22;41723;49.326;8.430;2024-03-02T12:43:46;17.00;93.20
43673;DHT22;41723;49.326;8.430;2024-03-02T12:46:13;17.00;93.00
43673;DHT22;41723;49.326;8.430;2024-03-02T12:48:38;17.30;93.10
43673;DHT22;41723;49.326;8.430;2024-03-02T12:51:07;17.10;92.60
43673;DHT22;41723;49.326;8.430;2024-03-02T12:53:33;17.20;93.30
43673;DHT22;41723;49.326;8.430;2024-03-02T12:55:59;17.20;93.10
43673;DHT22;41723;49.326;8.430;2024-03-02T12:58:28;17.10;93.40
43673;DHT22;41723;49.326;8.430;2024-03-02T13:01:06;17.10;94.10
43673;DHT22;41723;49.326;8.430;2024-03-02T13:03:35;17.10;93.70
43673;DHT22;41723;49.326;8.430;2024-03-02T13:06:00;17.30;92.90
43673;DHT22;41723;49.326;8.430;2024-03-02T13:08:28;17.40;92.10
43673;DHT22;41723;49.326;8.430;2024-03-02T13:10:54;17.50;92.30
43673;DHT22;41723;49.326;8.430;2024-03-02T13:13:19;17.40;92.40
43673;DHT22;41723;49.326;8.430;2024-03-02T13:15:45;17.40;92.30
43673;DHT22;41723;49.326;8.430;2024-03-02T13:18:11;17.50;92.20
43673;DHT22;41723;49.326;8.430;2024-03-02T13:20:36;17.50;92.30
43673;DHT22;41723;49.326;8.430;2024-03-02T13:23:02;17.40;92.10
43673;DHT22;41723;49.326;8.430;2024-03-02T13:25:28;17.50;92.40
43673;DHT22;41723;49.326;8.430;2024-03-02T13:27:53;17.50;92.00
43673;DHT22;41723;49.326;8.430;2024-03-02T13:30:19;17.40;92.50
43673;DHT22;41723;49.326;8.430;2024-03-02T13:32:45;17.20;92.00
43673;DHT22;41723;49.326;8.430;2024-03-02T13:35:11;17.10;92.70
43673;DHT22;41723;49.326;8.430;2024-03-02T13:37:36;17.20;92.50
43673;DHT22;41723;49.326;8.430;2024-03-02T13:40:02;17.30;92.70
43673;DHT22;41723;49.326;8.430;2024-03-02T13:42:29;17.30;93.00
43673;DHT22;41723;49.326;8.430;2024-03-02T13:44:55;17.20;92.80
43673;DHT22;41723;49.326;8.430;2024-03-02T13:47:20;17.10;92.30
43673;DHT22;41723;49.326;8.430;2024-03-02T13:49:46;16.80;93.40
43673;DHT22;41723;49.326;8.430;2024-03-02T13:52:14;16.70;93.20
43673;DHT22;41723;49.326;8.430;2024-03-02T13:54:40;16.40;93.20
43673;DHT22;41723;49.326;8.430;2024-03-02T13:57:07;16.30;93.80
43673;DHT22;41723;49.326;8.430;2024-03-02T13:59:33;16.40;94.00
43673;DHT22;41723;49.326;8.430;2024-03-02T14:02:00;16.30;93.60
43673;DHT22;41723;49.326;8.430;2024-03-02T14:04:26;16.20;94.40
43673;DHT22;41723;49.326;8.430;2024-03-02T14:06:52;16.40;94.70
43673;DHT22;41723;49.326;8.430;2024-03-02T14:09:18;16.50;94.00
43673;DHT22;41723;49.326;8.430;2024-03-02T14:11:46;16.50;94.10
43673;DHT22;41723;49.326;8.430;2024-03-02T14:14:11;16.40;94.30
43673;DHT22;41723;49.326;8.430;2024-03-02T14:16:37;16.40;94.70
43673;DHT22;41723;49.326;8.430;2024-03-02T14:19:03;16.50;94.80
43673;DHT22;41723;49.326;8.430;2024-03-02T14:21:30;16.60;94.20
43673;DHT22;41723;49.326;8.430;2024-03-02T14:23:56;16.50;94.00
43673;DHT22;41723;49.326;8.430;2024-03-02T14:26:21;16.50;94.10
43673;DHT22;41723;49.326;8.430;2024-03-02T14:28:47;16.30;94.10
43673;DHT22;41723;49.326;8.430;2024-03-02T14:31:13;16.20;94.30
43673;DHT22;41723;49.326;8.430;2024-03-02T14:33:44;16.10;94.20
43673;DHT22;41723;49.326;8.430;2024-03-02T14:36:10;16.10;94.70
43673;DHT22;41723;49.326;8.430;2024-03-02T14:38:35;16.10;94.50
43673;DHT22;41723;49.326;8.430;2024-03-02T14:41:01;16.00;94.40
43673;DHT22;41723;49.326;8.430;2024-03-02T14:43:26;16.10;95.00
43673;DHT22;41723;49.326;8.430;2024-03-02T14:45:52;16.00;95.90
43673;DHT22;41723;49.326;8.430;2024-03-02T14:48:17;16.00;95.30
43673;DHT22;41723;49.326;8.430;2024-03-02T14:50:43;15.90;95.30
43673;DHT22;41723;49.326;8.430;2024-03-02T14:53:09;15.90;94.80
43673;DHT22;41723;49.326;8.430;2024-03-02T14:55:34;15.90;94.80
43673;DHT22;41723;49.326;8.430;2024-03-02T14:58:00;15.90;95.00
43673;DHT22;41723;49.326;8.430;2024-03-02T15:00:26;15.90;94.90
43673;DHT22;41723;49.326;8.430;2024-03-02T15:02:51;15.80;95.00
43673;DHT22;41723;49.326;8.430;2024-03-02T15:05:17;15.70;94.30
43673;DHT22;41723;49.326;8.430;2024-03-02T15:07:43;15.70;95.00
43673;DHT22;41723;49.326;8.430;2024-03-02T15:10:08;15.60;95.20
43673;DHT22;41723;49.326;8.430;2024-03-02T15:12:34;15.60;94.80
43673;DHT22;41723;49.326;8.430;2024-03-02T15:15:00;15.50;95.00
43673;DHT22;41723;49.326;8.430;2024-03-02T15:17:25;15.40;95.20
43673;DHT22;41723;49.326;8.430;2024-03-02T15:19:51;15.40;95.40
43673;DHT22;41723;49.326;8.430;2024-03-02T15:22:17;15.40;95.30
43673;DHT22;41723;49.326;8.430;2024-03-02T15:24:43;15.30;95.40
43673;DHT22;41723;49.326;8.430;2024-03-02T15:27:09;15.30;95.50
43673;DHT22;41723;49.326;8.430;2024-03-02T15:29:35;15.30;95.50
43673;DHT22;41723;49.326;8.430;2024-03-02T15:32:01;15.20;95.10
43673;DHT22;41723;49.326;8.430;2024-03-02T15:34:30;15.20;95.30
43673;DHT22;41723;49.326;8.430;2024-03-02T15:36:55;15.20;95.60
43673;DHT22;41723;49.326;8.430;2024-03-02T15:39:21;15.20;95.90
43673;DHT22;41723;49.326;8.430;2024-03-02T15:41:47;15.10;96.30